createdAt,value
2023-03-15T00:01:27.384Z,4.70
2023-03-15T00:04:14.968Z,4.80
2023-03-15T00:07:02.390Z,4.90
2023-03-15T00:09:49.653Z,4.90
2023-03-15T00:12:37.214Z,5.00
2023-03-15T00:15:26.156Z,5.10
2023-03-15T00:18:13.353Z,5.20
2023-03-15T00:21:00.848Z,5.20
2023-03-15T00:23:48.372Z,5.20
2023-03-15T00:26:35.863Z,5.20
2023-03-15T00:29:22.930Z,5.20
2023-03-15T00:32:11.833Z,5.30
2023-03-15T00:35:00.207Z,5.30
2023-03-15T00:37:47.672Z,5.30
2023-03-15T00:40:38.307Z,5.20
2023-03-15T00:43:25.952Z,5.10
2023-03-15T00:46:14.838Z,5.00
2023-03-15T00:49:04.644Z,5.00
2023-03-15T00:51:52.093Z,5.00
2023-03-15T00:54:39.233Z,5.00
2023-03-15T00:57:26.764Z,5.00
2023-03-15T01:00:17.988Z,5.00
2023-03-15T01:03:06.634Z,4.90
2023-03-15T01:05:55.752Z,4.70
2023-03-15T01:08:43.740Z,4.60
2023-03-15T01:11:31.590Z,4.40
2023-03-15T01:14:20.480Z,4.20
2023-03-15T01:17:08.522Z,4.10
2023-03-15T01:19:56.235Z,4.00
2023-03-15T01:22:45.257Z,3.90
2023-03-15T01:25:36.866Z,3.90
2023-03-15T01:28:24.903Z,3.80
2023-03-15T01:31:19.268Z,3.80
2023-03-15T01:34:06.706Z,3.70
2023-03-15T01:36:55.523Z,3.70
2023-03-15T01:39:50.951Z,3.70
2023-03-15T01:42:54.275Z,3.60
2023-03-15T01:46:11.771Z,3.60
2023-03-15T01:49:02.724Z,3.60
2023-03-15T01:51:59.663Z,3.50
2023-03-15T01:54:58.892Z,3.60
2023-03-15T01:57:51.235Z,3.60
2023-03-15T02:00:39.767Z,3.50
2023-03-15T02:03:36.794Z,3.50
2023-03-15T02:06:26.904Z,3.50
2023-03-15T02:09:19.513Z,3.50
2023-03-15T02:12:11.166Z,3.50
2023-03-15T02:15:01.826Z,3.60
2023-03-15T02:17:52.326Z,3.60
2023-03-15T02:20:47.740Z,3.60
2023-03-15T02:23:36.231Z,3.60
2023-03-15T02:26:31.398Z,3.60
2023-03-15T02:29:21.706Z,3.60
2023-03-15T02:32:10.101Z,3.60
2023-03-15T02:34:57.748Z,3.60
2023-03-15T02:37:46.091Z,3.60
2023-03-15T02:40:33.711Z,3.60
2023-03-15T02:43:29.875Z,3.60
2023-03-15T02:46:20.259Z,3.70
2023-03-15T02:49:10.300Z,3.70
2023-03-15T02:51:57.949Z,3.70
2023-03-15T02:54:45.447Z,3.60
2023-03-15T02:57:33.065Z,3.60
2023-03-15T03:00:21.479Z,3.60
2023-03-15T03:03:11.948Z,3.60
2023-03-15T03:05:59.852Z,3.60
2023-03-15T03:08:48.124Z,3.50
2023-03-15T03:11:39.457Z,3.50
2023-03-15T03:14:27.187Z,3.50
2023-03-15T03:17:16.246Z,3.50
2023-03-15T03:20:10.057Z,3.40
2023-03-15T03:23:06.060Z,3.40
2023-03-15T03:25:56.453Z,3.30
2023-03-15T03:28:45.822Z,3.30
2023-03-15T03:31:35.100Z,3.30
2023-03-15T03:34:24.437Z,3.20
2023-03-15T03:37:14.008Z,3.20
2023-03-15T03:40:14.858Z,3.20
2023-03-15T03:43:03.689Z,3.10
2023-03-15T03:45:51.476Z,3.10
2023-03-15T03:48:39.995Z,3.10
2023-03-15T03:51:28.248Z,3.10
2023-03-15T03:54:17.809Z,3.10
2023-03-15T03:57:06.287Z,3.00
2023-03-15T03:59:59.061Z,3.10
2023-03-15T04:02:47.513Z,3.10
2023-03-15T04:05:37.080Z,3.10
2023-03-15T04:08:26.919Z,3.10
2023-03-15T04:11:18.875Z,3.10
2023-03-15T04:14:15.042Z,3.10
2023-03-15T04:17:05.124Z,3.10
2023-03-15T04:19:53.293Z,3.00
2023-03-15T04:22:49.801Z,3.00
2023-03-15T04:25:51.348Z,3.00
2023-03-15T04:28:59.115Z,2.90
2023-03-15T04:32:02.025Z,2.80
2023-03-15T04:35:06.021Z,2.80
2023-03-15T04:38:02.531Z,2.80
2023-03-15T04:41:11.460Z,2.80
2023-03-15T04:44:00.895Z,2.80
2023-03-15T04:47:04.275Z,2.80
2023-03-15T04:49:58.430Z,2.80
2023-03-15T04:53:01.887Z,2.80
2023-03-15T04:56:09.405Z,2.70
2023-03-15T04:59:18.341Z,2.70
2023-03-15T05:02:17.361Z,2.80
2023-03-15T05:05:22.468Z,2.80
2023-03-15T05:08:17.521Z,2.70
2023-03-15T05:11:25.189Z,2.70
2023-03-15T05:14:27.668Z,2.60
2023-03-15T05:17:28.089Z,2.60
2023-03-15T05:20:35.553Z,2.60
2023-03-15T05:23:34.230Z,2.60
2023-03-15T05:26:32.976Z,2.60
2023-03-15T05:29:35.640Z,2.60
2023-03-15T05:32:39.876Z,2.60
2023-03-15T05:35:47.922Z,2.60
2023-03-15T05:38:54.062Z,2.60
2023-03-15T05:41:41.711Z,2.60
2023-03-15T05:44:40.213Z,2.60
2023-03-15T05:47:40.853Z,2.50
2023-03-15T05:50:33.738Z,2.50
2023-03-15T05:53:41.306Z,2.50
2023-03-15T05:56:48.719Z,2.50
2023-03-15T05:59:40.848Z,2.50
2023-03-15T06:02:34.852Z,2.50
2023-03-15T06:05:22.570Z,2.50
2023-03-15T06:08:11.531Z,2.40
2023-03-15T06:11:03.359Z,2.40
2023-03-15T06:13:52.459Z,2.40
2023-03-15T06:16:55.365Z,2.30
2023-03-15T06:19:45.155Z,2.30
2023-03-15T06:22:32.647Z,2.20
2023-03-15T06:25:26.778Z,2.20
2023-03-15T06:28:14.678Z,2.20
2023-03-15T06:31:14.335Z,2.20
2023-03-15T06:34:13.198Z,2.30
2023-03-15T06:37:01.512Z,2.40
2023-03-15T06:39:51.481Z,2.40
2023-03-15T06:42:42.114Z,2.50
2023-03-15T06:45:32.921Z,2.40
2023-03-15T06:48:22.108Z,2.50
2023-03-15T06:51:11.209Z,2.50
2023-03-15T06:53:58.989Z,2.50
2023-03-15T06:56:47.279Z,2.60
2023-03-15T06:59:35.142Z,2.70
2023-03-15T07:02:23.129Z,2.70
2023-03-15T07:05:11.524Z,2.80
2023-03-15T07:08:00.924Z,2.80
2023-03-15T07:10:50.185Z,3.00
2023-03-15T07:13:37.978Z,3.20
2023-03-15T07:16:26.058Z,3.50
2023-03-15T07:19:14.123Z,3.70
2023-03-15T07:22:01.920Z,3.90
2023-03-15T07:24:51.751Z,3.90
2023-03-15T07:27:39.669Z,3.90
2023-03-15T07:30:28.321Z,4.00
2023-03-15T07:33:16.093Z,4.10
2023-03-15T07:36:05.571Z,4.10
2023-03-15T07:38:53.318Z,4.10
2023-03-15T07:41:42.006Z,4.00
2023-03-15T07:44:45.394Z,3.90
2023-03-15T07:47:33.102Z,3.90
2023-03-15T07:50:21.016Z,3.90
2023-03-15T07:53:09.822Z,3.90
2023-03-15T07:55:57.455Z,3.90
2023-03-15T07:58:46.793Z,4.00
2023-03-15T08:01:34.626Z,4.10
2023-03-15T08:04:23.280Z,4.20
2023-03-15T08:07:11.502Z,4.20
2023-03-15T08:09:59.517Z,4.10
2023-03-15T08:12:47.634Z,4.20
2023-03-15T08:15:36.978Z,4.30
2023-03-15T08:18:25.049Z,4.60
2023-03-15T08:21:12.699Z,4.80
2023-03-15T08:24:01.147Z,4.90
2023-03-15T08:26:48.915Z,5.00
2023-03-15T08:29:37.887Z,5.10
2023-03-15T08:32:27.168Z,5.20
2023-03-15T08:35:17.227Z,5.40
2023-03-15T08:38:05.365Z,5.50
2023-03-15T08:40:57.947Z,5.60
2023-03-15T08:43:46.168Z,5.50
2023-03-15T08:46:34.545Z,5.50
2023-03-15T08:49:23.877Z,5.70
2023-03-15T08:52:11.826Z,6.00
2023-03-15T08:54:59.549Z,6.20
2023-03-15T08:57:47.552Z,6.40
2023-03-15T09:00:35.401Z,6.60
2023-03-15T09:03:24.155Z,6.70
2023-03-15T09:06:13.994Z,6.70
2023-03-15T09:09:01.893Z,6.80
2023-03-15T09:11:49.834Z,6.80
2023-03-15T09:14:37.588Z,6.90
2023-03-15T09:17:25.422Z,7.20
2023-03-15T09:20:17.079Z,7.30
2023-03-15T09:23:06.290Z,7.40
2023-03-15T09:25:54.548Z,7.60
2023-03-15T09:28:42.002Z,7.80
2023-03-15T09:31:29.678Z,8.10
2023-03-15T09:34:17.514Z,8.40
2023-03-15T09:37:05.759Z,8.60
2023-03-15T09:39:55.292Z,8.90
2023-03-15T09:43:19.140Z,9.20
2023-03-15T09:46:21.392Z,9.50
2023-03-15T09:49:16.228Z,9.60
2023-03-15T09:52:10.005Z,9.50
2023-03-15T09:55:03.340Z,9.50
2023-03-15T09:57:53.495Z,10.30
2023-03-15T10:00:48.299Z,11.70
2023-03-15T10:03:49.406Z,13.30
2023-03-15T10:06:47.887Z,14.70
2023-03-15T10:09:36.344Z,16.70
2023-03-15T10:12:30.757Z,16.90
2023-03-15T10:15:31.053Z,16.20
2023-03-15T10:18:34.265Z,15.40
2023-03-15T10:21:34.621Z,15.40
2023-03-15T10:24:25.707Z,16.20
2023-03-15T10:27:27.481Z,17.40
2023-03-15T10:30:19.082Z,18.10
2023-03-15T10:33:14.660Z,18.50
2023-03-15T10:36:11.109Z,18.90
2023-03-15T10:39:00.290Z,18.00
2023-03-15T10:41:49.960Z,18.20
2023-03-15T10:44:39.490Z,19.80
2023-03-15T10:47:28.541Z,21.60
2023-03-15T10:50:26.753Z,22.40
2023-03-15T10:53:22.361Z,22.70
2023-03-15T10:56:24.013Z,22.70
2023-03-15T10:59:18.783Z,21.70
2023-03-15T11:02:27.216Z,21.70
2023-03-15T11:05:19.150Z,21.60
2023-03-15T11:08:15.835Z,21.10
2023-03-15T11:11:07.050Z,20.00
2023-03-15T11:14:02.082Z,18.60
2023-03-15T11:16:52.986Z,17.00
2023-03-15T11:19:46.208Z,15.70
2023-03-15T11:22:37.999Z,14.80
2023-03-15T11:25:33.659Z,14.30
2023-03-15T11:28:24.703Z,13.80
2023-03-15T11:31:12.919Z,13.30
2023-03-15T11:34:08.848Z,12.70
2023-03-15T11:37:09.429Z,12.20
2023-03-15T11:40:11.339Z,11.90
2023-03-15T11:43:03.580Z,11.70
2023-03-15T11:46:05.277Z,11.60
2023-03-15T11:49:12.716Z,11.60
2023-03-15T11:52:02.133Z,11.40
2023-03-15T11:54:50.090Z,11.30
2023-03-15T11:57:42.580Z,11.40
2023-03-15T12:00:55.254Z,11.50
2023-03-15T12:03:44.663Z,11.60
2023-03-15T12:06:39.688Z,11.60
2023-03-15T12:09:50.037Z,11.70
2023-03-15T12:12:38.151Z,11.80
2023-03-15T12:15:48.407Z,11.90
2023-03-15T12:18:36.931Z,12.10
2023-03-15T12:21:33.297Z,12.20
2023-03-15T12:24:36.666Z,12.30
2023-03-15T12:27:25.857Z,12.20
2023-03-15T12:30:24.040Z,11.90
2023-03-15T12:33:17.448Z,11.60
2023-03-15T12:36:16.900Z,11.30
2023-03-15T12:39:23.709Z,11.30
2023-03-15T12:42:36.459Z,11.30
2023-03-15T12:45:40.758Z,11.10
2023-03-15T12:48:32.946Z,10.80
2023-03-15T12:51:50.773Z,10.50
2023-03-15T12:54:48.547Z,10.40
2023-03-15T12:57:48.086Z,10.40
2023-03-15T13:00:44.030Z,10.30
2023-03-15T13:03:36.781Z,10.30
2023-03-15T13:06:40.549Z,10.30
2023-03-15T13:09:45.355Z,10.30
2023-03-15T13:12:41.101Z,10.30
2023-03-15T13:15:34.447Z,10.40
2023-03-15T13:18:25.942Z,10.50
2023-03-15T13:21:21.661Z,10.40
2023-03-15T13:24:18.640Z,10.30
2023-03-15T13:27:12.913Z,10.20
2023-03-15T13:30:03.104Z,10.10
2023-03-15T13:32:50.650Z,10.20
2023-03-15T13:35:46.911Z,10.30
2023-03-15T13:38:36.546Z,10.60
2023-03-15T13:41:26.676Z,11.00
2023-03-15T13:44:24.116Z,11.30
2023-03-15T13:47:22.273Z,11.50
2023-03-15T13:50:16.178Z,11.40
2023-03-15T13:53:05.083Z,11.30
2023-03-15T13:55:55.776Z,11.10
2023-03-15T13:58:45.938Z,10.80
2023-03-15T14:01:42.700Z,10.50
2023-03-15T14:04:31.784Z,10.20
2023-03-15T14:07:31.832Z,10.10
2023-03-15T14:10:36.880Z,10.10
2023-03-15T14:13:29.506Z,10.20
2023-03-15T14:16:30.065Z,10.10
2023-03-15T14:19:19.783Z,10.10
2023-03-15T14:22:21.112Z,10.10
2023-03-15T14:25:24.883Z,10.00
2023-03-15T14:28:17.535Z,9.90
2023-03-15T14:31:06.017Z,9.80
2023-03-15T14:34:01.167Z,9.70
2023-03-15T14:36:48.694Z,9.60
2023-03-15T14:39:41.946Z,9.50
2023-03-15T14:42:29.303Z,9.50
2023-03-15T14:45:22.394Z,9.40
2023-03-15T14:48:14.850Z,9.40
2023-03-15T14:51:02.734Z,9.30
2023-03-15T14:53:53.454Z,9.30
2023-03-15T14:56:43.298Z,9.40
2023-03-15T14:59:32.478Z,9.30
2023-03-15T15:02:22.091Z,9.40
2023-03-15T15:05:23.542Z,9.30
2023-03-15T15:08:14.196Z,9.30
2023-03-15T15:11:03.112Z,9.20
2023-03-15T15:13:51.314Z,9.20
2023-03-15T15:16:39.009Z,9.10
2023-03-15T15:19:28.330Z,9.00
2023-03-15T15:22:16.379Z,8.90
2023-03-15T15:25:08.112Z,8.90
2023-03-15T15:27:56.146Z,8.80
2023-03-15T15:30:44.105Z,8.80
2023-03-15T15:33:32.216Z,8.90
2023-03-15T15:36:25.840Z,8.90
2023-03-15T15:39:22.904Z,8.90
2023-03-15T15:42:12.154Z,8.90
2023-03-15T15:44:59.972Z,8.80
2023-03-15T15:47:48.333Z,8.80
2023-03-15T15:50:37.553Z,8.90
2023-03-15T15:53:34.804Z,8.90
2023-03-15T15:56:32.248Z,8.90
2023-03-15T15:59:21.088Z,8.80
2023-03-15T16:02:18.619Z,8.70
2023-03-15T16:05:08.391Z,8.60
2023-03-15T16:07:58.997Z,8.50
2023-03-15T16:10:48.660Z,8.40
2023-03-15T16:13:37.043Z,8.30
2023-03-15T16:16:25.494Z,8.20
2023-03-15T16:19:13.028Z,8.10
2023-03-15T16:22:01.206Z,8.00
2023-03-15T16:24:53.804Z,8.00
2023-03-15T16:27:43.766Z,8.00
2023-03-15T16:30:33.651Z,8.00
2023-03-15T16:33:24.162Z,7.90
2023-03-15T16:36:20.270Z,7.80
2023-03-15T16:39:10.288Z,7.70
2023-03-15T16:41:58.285Z,7.50
2023-03-15T16:44:47.351Z,7.40
2023-03-15T16:47:35.569Z,7.30
2023-03-15T16:50:23.698Z,7.20
2023-03-15T16:53:13.898Z,7.10
2023-03-15T16:56:01.190Z,7.10
2023-03-15T16:58:53.378Z,7.00
2023-03-15T17:01:42.878Z,7.00
2023-03-15T17:04:31.055Z,7.00
2023-03-15T17:07:20.367Z,7.00
2023-03-15T17:10:12.283Z,7.00
2023-03-15T17:13:03.247Z,6.90
2023-03-15T17:15:56.946Z,6.90
2023-03-15T17:18:51.041Z,6.80
2023-03-15T17:21:39.263Z,6.80
2023-03-15T17:24:27.269Z,6.70
2023-03-15T17:27:22.916Z,6.70
2023-03-15T17:30:18.395Z,6.70
2023-03-15T17:33:06.740Z,6.60
2023-03-15T17:35:59.262Z,6.70
2023-03-15T17:38:48.956Z,6.60
2023-03-15T17:41:38.702Z,6.60
2023-03-15T17:44:26.649Z,6.60
2023-03-15T17:47:15.319Z,6.60
2023-03-15T17:50:03.551Z,6.50
2023-03-15T17:52:57.191Z,6.40
2023-03-15T17:55:46.002Z,6.40
2023-03-15T17:58:35.119Z,6.30
2023-03-15T18:01:25.338Z,6.30
2023-03-15T18:04:14.676Z,6.30
2023-03-15T18:07:03.081Z,6.20
2023-03-15T18:09:52.584Z,6.20
2023-03-15T18:12:40.818Z,6.10
2023-03-15T18:15:28.880Z,6.20
2023-03-15T18:18:17.324Z,6.20
2023-03-15T18:21:05.100Z,6.20
2023-03-15T18:23:53.852Z,6.20
2023-03-15T18:26:42.936Z,6.20
2023-03-15T18:29:32.029Z,6.30
2023-03-15T18:32:20.028Z,6.30
2023-03-15T18:35:09.240Z,6.30
2023-03-15T18:37:58.057Z,6.30
2023-03-15T18:40:46.306Z,6.30
2023-03-15T18:43:35.257Z,6.30
2023-03-15T18:46:25.496Z,6.20
2023-03-15T18:49:13.692Z,6.20
2023-03-15T18:52:01.915Z,6.20
2023-03-15T18:54:49.808Z,6.20
2023-03-15T18:57:41.558Z,6.20
2023-03-15T19:00:33.066Z,6.10
2023-03-15T19:03:21.379Z,6.10
2023-03-15T19:06:11.794Z,6.00
2023-03-15T19:08:59.562Z,6.00
2023-03-15T19:11:47.526Z,6.00
2023-03-15T19:14:35.184Z,5.90
2023-03-15T19:17:25.458Z,5.90
2023-03-15T19:20:14.907Z,5.80
2023-03-15T19:23:02.564Z,5.70
2023-03-15T19:25:50.215Z,5.70
2023-03-15T19:28:37.649Z,5.70
2023-03-15T19:31:25.329Z,5.70
2023-03-15T19:34:14.883Z,5.70
2023-03-15T19:37:03.813Z,5.70
2023-03-15T19:39:51.163Z,5.60
2023-03-15T19:42:39.008Z,5.60
2023-03-15T19:45:27.265Z,5.60
2023-03-15T19:48:16.567Z,5.60
2023-03-15T19:51:06.135Z,5.60
2023-03-15T19:53:53.758Z,5.50
2023-03-15T20:02:17.789Z,5.60
2023-03-15T20:05:05.414Z,5.50
2023-03-15T20:07:54.809Z,5.50
2023-03-15T20:10:42.530Z,5.50
2023-03-15T20:13:30.748Z,5.50
2023-03-15T20:16:18.149Z,5.50
2023-03-15T20:19:05.840Z,5.50
2023-03-15T20:21:53.527Z,5.40
2023-03-15T20:24:44.713Z,5.40
2023-03-15T20:27:35.002Z,5.40
2023-03-15T20:30:23.417Z,5.30
2023-03-15T20:33:11.742Z,5.30
2023-03-15T20:35:59.572Z,5.30
2023-03-15T20:38:47.607Z,5.20
2023-03-15T20:41:38.745Z,5.20
2023-03-15T20:44:26.592Z,5.10
2023-03-15T20:47:14.900Z,5.10
2023-03-15T20:50:03.319Z,5.10
2023-03-15T20:52:50.956Z,5.00
2023-03-15T20:55:38.612Z,5.00
2023-03-15T20:58:28.310Z,5.00
2023-03-15T21:01:17.416Z,5.00
2023-03-15T21:04:05.601Z,5.00
2023-03-15T21:06:53.341Z,5.10
2023-03-15T21:09:41.905Z,5.10
2023-03-15T21:12:30.534Z,5.10
2023-03-15T21:15:20.432Z,5.00
2023-03-15T21:18:08.133Z,5.00
2023-03-15T21:20:59.210Z,5.00
2023-03-15T21:23:47.001Z,4.90
2023-03-15T21:26:35.154Z,5.00
2023-03-15T21:29:23.958Z,4.90
2023-03-15T21:32:13.555Z,4.80
2023-03-15T21:35:01.377Z,4.80
2023-03-15T21:37:49.711Z,4.80
2023-03-15T21:40:37.471Z,4.70
2023-03-15T21:43:25.712Z,4.70
2023-03-15T21:46:15.306Z,4.70
2023-03-15T21:49:04.927Z,4.60
2023-03-15T21:51:53.127Z,4.60
2023-03-15T21:54:40.738Z,4.60
2023-03-15T21:57:28.277Z,4.60
2023-03-15T22:00:19.915Z,4.60
2023-03-15T22:03:08.098Z,4.60
2023-03-15T22:05:57.546Z,4.60
2023-03-15T22:08:45.165Z,4.60
2023-03-15T22:11:33.095Z,4.60
2023-03-15T22:14:22.217Z,4.50
2023-03-15T22:17:10.464Z,4.40
2023-03-15T22:19:58.452Z,4.40
2023-03-15T22:22:49.349Z,4.30
2023-03-15T22:25:39.209Z,4.30
2023-03-15T22:28:27.324Z,4.30
2023-03-15T22:31:15.141Z,4.30
2023-03-15T22:34:04.760Z,4.30
2023-03-15T22:36:53.088Z,4.30
2023-03-15T22:39:43.480Z,4.30
2023-03-15T22:42:31.040Z,4.30
2023-03-15T22:45:19.195Z,4.20
2023-03-15T22:48:07.097Z,4.20
2023-03-15T22:51:00.268Z,4.20
2023-03-15T22:53:47.965Z,4.30
2023-03-15T22:56:39.936Z,4.20
2023-03-15T22:59:29.709Z,4.30
2023-03-15T23:02:17.548Z,4.30
2023-03-15T23:05:05.480Z,4.30
2023-03-15T23:07:52.990Z,4.30
2023-03-15T23:10:42.351Z,4.30
2023-03-15T23:13:31.986Z,4.30
2023-03-15T23:16:20.535Z,4.30
2023-03-15T23:19:08.311Z,4.20
2023-03-15T23:21:55.871Z,4.20
2023-03-15T23:24:46.445Z,4.20
2023-03-15T23:27:34.382Z,4.20
2023-03-15T23:30:24.144Z,4.10
2023-03-15T23:33:12.364Z,4.20
2023-03-15T23:36:00.461Z,4.10
2023-03-15T23:38:48.258Z,4.10
2023-03-15T23:41:36.896Z,4.00
2023-03-15T23:44:24.277Z,4.00
2023-03-15T23:47:13.570Z,4.00
2023-03-15T23:50:02.771Z,4.00
2023-03-15T23:52:50.385Z,4.00
2023-03-15T23:55:37.998Z,4.00
2023-03-15T23:58:25.976Z,4.00
